Latest Weather Observations for Gunnedah Airport

IDN60801

Issued at 1:03 pm EDT Friday 27 March 2015 (issued every 30 minutes, with the page automatically refreshed every 10 minutes)

About weather observations | Map of weather stations | Latest weather observations for NSW | Other Formats
Station Details ID: 055202 Name: GUNNEDAH AIRPORT AWS Lat: -30.95 Lon: 150.25 Height: 262.57 m
Data from the previous 72 hours. | See also: Recent months at Gunnedah Airport
Date/Time
EDT
Temp
°C
App
Temp
°C
Dew
Point
Rel
Hum
%
Delta-T
°C
Wind Press
QNH
hPa
Press
MSL
hPa
Rain
since 9 am
mm
Dir
 
Spd
km/h
Gust
km/h
Spd
kts
Gust
kts
27/01:00pm 22.4 18.7 -0.3 22 10.3 NNW 9 19 5 10 1021.7 1020.6 0.0
27/12:30pm 21.7 17.9 -0.9 22 10.0 WSW 9 15 5 8 1022.3 1021.1 0.0
27/12:00pm 20.8 16.6 -1.1 23 9.6 SSE 11 15 6 8 1022.8 1021.6 0.0
27/11:30am 20.3 16.8 -1.5 23 9.5 ENE 7 19 4 10 1023.0 1021.8 0.0
27/11:00am 19.5 15.3 -1.0 25 8.9 ESE 11 17 6 9 1023.1 1022.0 0.0
27/10:30am 18.9 14.4 0.0 28 8.4 SE 13 19 7 10 1023.3 1022.2 0.0
27/10:00am 17.7 12.9 -0.1 30 7.8 SE 15 20 8 11 1023.3 1022.2 0.0
27/09:30am 16.9 12.1 0.1 32 7.3 SE 15 19 8 10 1023.3 1022.2 0.0
27/09:00am 14.3 13.1 4.6 52 4.5 CALM 0 0 0 0 1023.3 1022.2 0.0
27/08:30am 11.0 9.5 6.7 75 2.1 NNE 4 7 2 4 1023.1 1022.0 0.0
27/08:00am 8.4 7.5 5.9 84 1.1 CALM 0 0 0 0 1022.7 1021.5 0.0
27/07:30am 8.1 7.0 5.0 81 1.4 CALM 0 0 0 0 1022.4 1021.2 0.0
27/07:00am 8.3 7.2 4.9 79 1.5 CALM 0 0 0 0 1022.0 1020.9 0.0
27/06:30am 7.6 6.4 4.6 81 1.3 CALM 0 0 0 0 1021.7 1020.6 0.0
27/06:00am 8.5 6.2 4.9 78 1.6 ENE 6 7 3 4 1021.5 1020.4 0.0
27/05:30am 8.4 6.1 4.6 77 1.7 ENE 6 9 3 5 1021.1 1020.0 0.0
27/05:00am 9.5 6.7 5.1 74 2.0 ENE 9 17 5 9 1021.0 1019.9 0.0
27/04:30am 12.7 11.0 4.2 56 3.9 WNW 2 7 1 4 1020.9 1019.8 0.0
27/04:00am 12.2 9.5 3.9 57 3.8 NNW 7 11 4 6 1020.9 1019.8 0.0
27/03:30am 14.4 12.1 2.6 45 5.3 S 4 9 2 5 1021.0 1019.9 0.0
27/03:00am 15.5 12.7 3.0 43 5.7 SSW 7 9 4 5 1021.1 1020.0 0.0
27/02:30am 15.1 11.7 3.9 47 5.2 S 11 15 6 8 1021.4 1020.3 0.0
27/02:00am 14.5 10.7 3.9 49 4.9 S 13 17 7 9 1021.6 1020.5 0.0
27/01:30am 15.2 11.8 4.0 47 5.2 S 11 17 6 9 1021.5 1020.4 0.0
27/01:00am 15.4 12.0 3.9 46 5.4 SSW 11 17 6 9 1021.4 1020.3 0.0
27/12:30am 16.5 13.3 3.2 41 6.2 SSW 9 11 5 6 1021.3 1020.2 0.0
27/12:00am 17.5 14.2 2.7 37 6.8 S 9 17 5 9 1021.1 1020.0 0.0
 
Date/Time
EDT
Temp
°C
App
Temp
°C
Dew
Point
Rel
Hum
%
Delta-T
°C
Wind Press
QNH
hPa
Press
MSL
hPa
Rain
since 9 am
mm
Dir
 
Spd
km/h
Gust
km/h
Spd
kts
Gust
kts
26/11:30pm 18.3 14.1 1.8 33 7.6 S 13 20 7 11 1021.1 1020.0 0.0
26/11:00pm 19.7 16.2 1.2 29 8.4 SSE 9 15 5 8 1020.9 1019.8 0.0
26/10:30pm 19.4 16.6 1.9 31 8.1 WSW 6 11 3 6 1020.9 1019.8 0.0
26/09:30pm 20.6 15.8 0.4 26 9.2 WSW 15 20 8 11 1020.0 1018.9 0.0
26/09:00pm 21.4 15.8 0.0 24 9.7 WSW 19 24 10 13 1019.7 1018.6 0.0
26/08:30pm 22.0 15.7 -0.7 22 10.2 SW 22 32 12 17 1019.2 1018.0 0.0
26/08:00pm 22.6 17.0 1.0 24 10.1 SW 20 30 11 16 1018.7 1017.5 0.0
26/07:30pm 23.7 18.1 1.4 23 10.6 SW 20 30 11 16 1018.0 1016.9 0.0
26/07:00pm 24.1 19.1 1.1 22 10.9 W 17 20 9 11 1017.5 1016.4 0.0
26/06:30pm 26.4 20.5 -0.6 17 12.6 W 20 28 11 15 1017.1 1016.0 0.0
26/06:00pm 27.7 21.7 -1.3 15 13.5 WSW 20 32 11 17 1016.9 1015.8 0.0
26/05:30pm 28.4 22.4 -1.6 14 13.9 W 20 26 11 14 1016.6 1015.5 0.0
26/05:00pm 28.5 23.1 -1.6 14 14.0 WSW 17 24 9 13 1016.6 1015.5 0.0
26/04:30pm 28.6 23.9 -1.5 14 14.0 W 13 26 7 14 1016.7 1015.6 0.0
26/04:00pm 28.1 22.9 -0.1 16 13.4 W 17 26 9 14 1016.9 1015.8 0.0
26/03:30pm 28.7 23.3 1.3 17 13.4 WSW 19 28 10 15 1017.1 1016.0 0.0
26/03:00pm 28.3 23.7 1.7 18 13.1 W 15 26 8 14 1017.5 1016.4 0.0
26/02:30pm 27.4 22.1 -0.6 16 13.1 WNW 17 28 9 15 1017.9 1016.8 0.0
26/02:00pm 26.9 21.5 -1.0 16 12.9 W 17 28 9 15 1018.3 1017.1 0.0
26/01:30pm 26.8 21.8 1.3 19 12.3 W 17 30 9 16 1018.8 1017.6 0.0
26/01:00pm 26.6 21.8 0.4 18 12.4 W 15 24 8 13 1019.2 1018.0 0.0
26/12:30pm 25.7 21.0 1.1 20 11.8 NW 15 24 8 13 1019.5 1018.3 0.0
26/12:00pm 24.9 21.2 -0.3 19 11.6 NW 9 17 5 9 1019.7 1018.6 0.0
26/11:30am 24.7 20.9 1.6 22 11.1 NNW 11 17 6 9 1019.9 1018.8 0.0
26/11:00am 23.7 21.4 2.5 25 10.2 NW 4 9 2 5 1020.0 1018.9 0.0
26/10:30am 22.3 21.4 6.1 35 8.3 CALM 0 0 0 0 1020.1 1019.0 0.0
26/10:00am 19.7 18.4 6.1 41 6.8 WSW 2 9 1 5 1020.0 1018.9 0.0
26/09:30am 17.7 17.1 7.4 51 5.3 CALM 0 0 0 0 1020.0 1018.9 0.0
26/09:00am 16.2 15.9 8.7 61 3.9 CALM 0 0 0 0 1019.8 1018.7 0.0
26/08:30am 14.0 13.7 8.8 71 2.7 CALM 0 0 0 0 1019.5 1018.3 0.0
26/08:00am 11.4 11.1 8.8 84 1.3 CALM 0 0 0 0 1019.1 1017.9 0.0
26/07:30am 9.5 9.0 7.8 89 0.8 CALM 0 0 0 0 1018.8 1017.6 0.0
26/07:00am 9.1 8.5 7.4 89 0.8 CALM 0 0 0 0 1018.5 1017.3 0.0
26/06:30am 9.5 8.9 7.6 88 0.9 CALM 0 0 0 0 1018.3 1017.1 0.0
26/06:00am 10.0 9.5 7.8 86 1.1 CALM 0 0 0 0 1018.0 1016.9 0.0
26/05:30am 10.3 9.7 7.5 83 1.4 CALM 0 0 0 0 1017.8 1016.7 0.0
26/05:00am 9.7 9.1 7.3 85 1.2 CALM 0 0 0 0 1017.5 1016.4 0.0
26/04:30am 10.0 9.4 7.3 83 1.3 CALM 0 0 0 0 1017.4 1016.3 0.0
26/04:00am 9.9 8.5 7.2 83 1.3 NE 4 7 2 4 1017.2 1016.1 0.0
26/03:30am 11.1 10.7 8.1 82 1.5 CALM 0 0 0 0 1017.3 1016.2 0.0
26/03:00am 11.5 11.1 8.4 81 1.5 CALM 0 0 0 0 1017.4 1016.3 0.0
26/02:30am 11.8 11.4 8.1 78 1.8 CALM 0 0 0 0 1017.5 1016.4 0.0
26/02:00am 12.2 12.0 8.9 80 1.7 CALM 0 0 0 0 1017.6 1016.5 0.0
26/01:30am 12.1 11.8 8.6 79 1.8 CALM 0 0 0 0 1017.5 1016.4 0.0
26/01:00am 13.1 12.6 7.8 70 2.6 CALM 0 0 0 0 1017.4 1016.3 0.0
26/12:30am 12.8 11.1 7.5 70 2.6 SW 6 7 3 4 1017.4 1016.3 0.0
26/12:00am 13.5 11.7 8.1 70 2.7 N 7 9 4 5 1017.3 1016.2 0.0
 
Date/Time
EDT
Temp
°C
App
Temp
°C
Dew
Point
Rel
Hum
%
Delta-T
°C
Wind Press
QNH
hPa
Press
MSL
hPa
Rain
since 9 am
mm
Dir
 
Spd
km/h
Gust
km/h
Spd
kts
Gust
kts
25/11:30pm 14.5 12.3 8.0 65 3.3 N 9 13 5 7 1017.2 1016.1 0.0
25/11:00pm 15.4 12.5 8.2 62 3.7 N 13 13 7 7 1017.2 1016.1 0.0
25/10:30pm 15.3 13.5 9.4 68 3.1 N 9 11 5 6 1017.0 1015.9 0.0
25/10:00pm 15.9 14.1 9.6 66 3.3 N 9 11 5 6 1016.7 1015.6 0.0
25/09:30pm 17.0 15.6 9.4 61 4.0 NW 7 9 4 5 1016.4 1015.3 0.0
25/09:00pm 19.6 17.1 8.0 47 6.1 W 11 13 6 7 1016.1 1014.9 0.0
25/08:30pm 20.4 17.8 4.4 35 7.8 W 7 9 4 5 1015.8 1014.6 0.0
25/08:00pm 21.7 18.7 3.9 31 8.7 W 9 11 5 6 1015.5 1014.3 0.0
25/07:30pm 22.2 18.3 3.3 29 9.2 W 13 15 7 8 1015.1 1013.9 0.0
25/07:00pm 24.9 20.8 2.4 23 11.0 W 13 17 7 9 1014.8 1013.6 0.0
25/06:30pm 27.6 23.8 5.8 25 11.5 W 15 17 8 9 1014.4 1013.2 0.0
25/06:00pm 28.7 26.0 7.3 26 11.6 W 11 17 6 9 1014.1 1013.0 0.0
25/05:30pm 29.2 26.3 8.3 27 11.6 WNW 13 22 7 12 1013.9 1012.8 0.0
25/05:00pm 29.0 25.7 8.1 27 11.5 WNW 15 20 8 11 1013.9 1012.8 0.0
25/04:30pm 29.1 26.6 8.2 27 11.6 WNW 11 17 6 9 1014.0 1012.9 0.0
25/04:00pm 29.1 26.0 8.7 28 11.4 W 15 20 8 11 1014.3 1013.1 0.0
25/03:30pm 28.3 25.6 9.1 30 10.7 WNW 13 24 7 13 1014.5 1013.3 0.0
25/03:00pm 28.2 25.0 9.9 32 10.4 NW 17 26 9 14 1014.6 1013.4 0.0
25/02:30pm 27.5 25.6 11.9 38 9.1 WNW 13 20 7 11 1014.8 1013.6 0.0
25/02:00pm 27.3 26.1 11.7 37 9.1 W 9 15 5 8 1014.9 1013.7 0.0
25/01:30pm 26.6 25.1 11.9 40 8.5 WNW 11 24 6 13 1015.2 1014.0 0.0
25/01:00pm 26.2 25.4 13.0 44 7.8 NNW 9 17 5 9 1015.6 1014.4 0.0
25/12:30pm 25.5 24.8 12.0 43 7.8 NW 7 11 4 6 1016.0 1014.8 0.0
25/12:00pm 24.6 23.5 10.8 42 7.8 ENE 7 11 4 6 1016.2 1015.0 0.0
25/11:30am 23.6 22.8 12.9 51 6.2 ESE 9 13 5 7 1016.4 1015.3 0.0
25/11:00am 23.2 22.7 12.5 51 6.2 SE 7 13 4 7 1016.6 1015.5 0.0
25/10:30am 22.0 21.0 12.3 54 5.6 SE 9 13 5 7 1016.7 1015.6 0.0
25/10:00am 21.2 21.1 13.9 63 4.3 E 7 11 4 6 1016.7 1015.6 0.0
25/09:30am 20.3 20.3 13.5 65 3.9 ENE 6 7 3 4 1016.7 1015.6 0.0
25/09:00am 19.4 19.9 11.7 61 4.3 CALM 0 0 0 0 1016.3 1015.1 23.8
25/08:30am 17.9 18.0 10.3 61 4.1 CALM 0 0 0 0 1016.2 1015.0 23.8
25/08:00am 16.8 18.2 14.4 86 1.4 CALM 0 0 0 0 1015.7 1014.5 23.8
25/07:30am 14.9 14.5 13.1 89 1.0 ESE 7 11 4 6 1015.6 1014.4 23.8
25/07:00am 15.9 16.7 13.6 86 1.3 NE 2 7 1 4 1015.2 1014.0 23.8
25/06:30am 15.4 16.2 12.7 84 1.5 CALM 0 0 0 0 1014.8 1013.6 23.8
25/06:00am 15.9 16.8 12.8 82 1.7 CALM 0 6 0 3 1014.4 1013.2 23.8
25/05:30am 17.4 16.6 11.7 69 3.2 S 7 9 4 5 1014.0 1012.9 23.8
25/05:00am 16.9 14.6 11.8 72 2.8 SSE 15 19 8 10 1013.7 1012.6 23.8
25/04:30am 18.0 17.5 12.7 71 3.0 SE 7 11 4 6 1013.6 1012.5 23.8
25/04:00am 17.8 16.6 12.7 72 2.9 SSW 11 15 6 8 1013.4 1012.3 23.8
25/03:30am 18.5 17.6 13.8 74 2.7 SSW 11 17 6 9 1013.3 1012.2 23.8
25/03:00am 18.6 17.2 14.5 77 2.4 SSW 15 19 8 10 1013.3 1012.2 23.8
25/02:30am 19.2 17.6 14.9 76 2.5 SSW 17 26 9 14 1013.4 1012.3 23.8
25/02:00am 20.0 17.5 15.2 74 2.9 SSW 22 28 12 15 1013.3 1012.2 23.8
25/01:30am 20.0 19.2 15.2 74 2.9 SSW 13 20 7 11 1013.3 1012.2 23.8
25/01:00am 20.6 20.6 16.2 76 2.7 SSW 11 15 6 8 1013.3 1012.2 23.8
25/12:30am 21.8 22.8 17.8 78 2.5 WSW 9 15 5 8 1013.4 1012.3 23.8
25/12:00am 21.8 24.0 19.5 87 1.5 WSW 7 11 4 6 1013.5 1012.4 23.8
 
Date/Time
EDT
Temp
°C
App
Temp
°C
Dew
Point
Rel
Hum
%
Delta-T
°C
Wind Press
QNH
hPa
Press
MSL
hPa
Rain
since 9 am
mm
Dir
 
Spd
km/h
Gust
km/h
Spd
kts
Gust
kts
24/11:30pm 21.5 24.6 19.4 88 1.3 WSW 2 6 1 3 1013.5 1012.4 23.8
24/11:00pm 21.4 23.6 19.5 89 1.2 SSE 7 9 4 5 1013.6 1012.5 23.8
24/10:30pm 21.4 22.8 19.5 89 1.2 SE 11 13 6 7 1013.4 1012.3 23.6
24/10:00pm 21.4 22.6 19.9 91 1.0 SE 13 15 7 8 1013.3 1012.2 23.6
24/09:30pm 21.2 23.9 19.5 90 1.1 SE 4 11 2 6 1013.2 1012.1 23.6
24/09:00pm 21.7 25.5 20.2 91 1.0 CALM 0 0 0 0 1012.7 1011.5 23.6
24/08:30pm 21.6 22.8 19.9 90 1.1 SSW 13 15 7 8 1011.9 1010.7 23.6
24/08:00pm 21.0 23.2 19.1 89 1.2 SE 6 7 3 4 1011.4 1010.2 23.6
24/07:30pm 21.5 23.4 19.8 90 1.1 ENE 9 15 5 8 1010.9 1009.7 23.6
24/07:00pm 21.5 23.2 20.1 92 0.9 ENE 11 15 6 8 1010.9 1009.7 23.6
24/06:30pm 21.0 22.5 19.8 93 0.8 SE 11 13 6 7 1011.0 1009.8 22.4
24/06:05pm 20.5 18.1 19.0 91 1.0 SW 30 48 16 26 1011.6 1010.4 17.8
24/06:00pm 20.8 15.5 19.5 92 0.8 WSW 46 76 25 41 1011.7 1010.5 16.6
24/05:58pm 21.0 15.0 19.6 92 0.9 WSW 50 76 27 41 1011.8 1010.6 15.8
24/05:45pm 21.6 17.5 18.2 81 2.1 WSW 37 83 20 45 1010.6 1009.4 2.0
24/05:43pm 23.6 21.1 18.9 75 3.0 WSW 30 63 16 34 1010.3 1009.1 1.0
24/05:30pm 28.9 28.1 16.1 46 8.0 WSW 15 19 8 10 1007.8 1006.6 0.0
24/05:00pm 31.3 27.9 13.6 34 10.8 NW 24 35 13 19 1007.6 1006.4 0.0
24/04:30pm 31.8 27.5 13.1 32 11.3 NNW 28 37 15 20 1007.7 1006.5 0.0
24/04:00pm 32.6 27.6 12.3 29 12.2 NNW 30 41 16 22 1008.4 1007.2 0.0
24/03:30pm 34.3 28.7 11.4 25 13.6 NNW 32 41 17 22 1008.9 1007.7 0.0
24/03:09pm 34.2 27.9 8.8 21 14.5 NNW 32 50 17 27 1009.1 1007.9 0.0
24/03:00pm 34.2 28.6 10.1 23 14.1 NNW 30 44 16 24 1009.5 1008.3 0.0
24/02:30pm 33.8 29.2 12.2 27 13.0 NW 28 44 15 24 1010.1 1009.0 0.0
24/02:00pm 33.1 28.1 12.1 27 12.6 NNW 30 43 16 23 1010.9 1009.7 0.0
24/01:30pm 32.9 27.3 12.0 28 12.5 NNW 33 44 18 24 1011.6 1010.4 0.0

Other Formats:

Comma delimited format used in spreadsheet applications
http://www.bom.gov.au/fwo/IDN60801/IDN60801.95740.axf

JavaScript Object Notation format (JSON) in row-major order
http://www.bom.gov.au/fwo/IDN60801/IDN60801.95740.json